CheckWX is a tool to help pilots better visualize weather data.  It is not intended as a substitute for an official pre-flight weather briefing.

12:35:13 UTC

KSLI METAR
Los Alamitos AAF Airport
Los Alamitos, California, USA
Current

37 mins ago

KSLI 271158Z AUTO 24003KT 10SM OVC019 18/14 A2997 RMK AO2 SLP152 T01810138 10183 20178 55001
Observed
Jun-27 @ 11:58 UTC
Wind
  • 240° at 3 KTS
Visibility
10 SM
Flight Rules
MVFR
Cloud Levels
  • Overcast at 1,900' AGL
Temperature
18°C / 64°F
Dewpoint
14°C / 57°F
Humidity
78%
Altimeter
29.97" Hg
Pressure
1014.92 hPa
Previous

2 hours ago

KSLI 271058Z AUTO 00000KT 10SM OVC017 18/14 A2996 RMK AO2 SLP148 T01810144
Observed
Jun-27 @ 10:58 UTC
Visibility
10 SM
Flight Rules
MVFR
Cloud Levels
  • Overcast at 1,700' AGL
Temperature
18°C / 64°F
Dewpoint
14°C / 57°F
Humidity
78%
Altimeter
29.96" Hg
Pressure
1014.52 hPa
Previous

3 hours ago

KSLI 270958Z AUTO 00000KT 10SM OVC019 18/14 A2996 RMK AO2 SLP148 T01830144
Observed
Jun-27 @ 09:58 UTC
Visibility
10 SM
Flight Rules
MVFR
Cloud Levels
  • Overcast at 1,900' AGL
Temperature
18°C / 64°F
Dewpoint
14°C / 57°F
Humidity
78%
Altimeter
29.96" Hg
Pressure
1014.52 hPa